Constable, New York
Current Conditions -  °F | °C
As of 5:53 PM on Tuesday 25 Nov 2014 (Local Time) from KMSS Reporting Station
Overcast Overcast  
Wind Chill: 30°   Ceiling: 2600
Heat Index: 40°   Visibility: 10mi
Dew Point: 32°   Wind: 20mph
Humidity: 73%   Direction: 230°SW
Pressure: 29.95"   Gusts: 25mph
Location:  44.93°N, 74.3°W
Report Text: KMSS 252253Z AUTO 23017G22KT 10SM BKN026 BKN034 OVC048 04/00 A2995 RMK AO2 RAB32E41 SLP146 P0000 T00440000
Loading
Personal Weather Stations






























Interactive Weather Map New forecast layout! Learn more

10-Day Weather Forecast

Advertisements
Track Severe Weather on mobile